Sierra-at-tahoe, California
Current Conditions -  °F | °C
As of 4:53 PM on Wednesday 22 Oct 2014 (Local Time) from KTVL Reporting Station
Clear Clear  
Wind Chill: 16°   Ceiling: Unl
Heat Index: 16°   Visibility: 10mi
Dew Point: -3°   Wind: 9mph
Humidity: 27%   Direction: 210°SSW
Pressure: 30.15"   Gusts: NA
Location:  38.77°N, 120.16°W
Report Text: KTVL 222353Z AUTO 21008KT 10SM CLR 16/M03 A3015 RMK AO2 SLP182 T01611028 10194 20139 55000
Loading
Personal Weather Stations






























Interactive Weather Map
Tropical Storm Tracking
New forecast layout! Learn more

10-Day Weather Forecast

Advertisements
Track Severe Weather on mobile